Time;durP1;ratioP1;P1;durP2;ratioP2;P2;SDS_P1;SDS_P2;PMS_P1;PMS_P2;Temp;Humidity;BMP_temperature;BMP_pressure;BME280_temperature;BME280_humidity;BME280_pressure;Samples;Min_cycle;Max_cycle;Signal;HPM_P1;HPM_P2
2021/12/26 00:02:17;;;;;;;4.17;1.73;;;;;;;;;;5073676;28;20184;-73
2021/12/26 00:04:42;;;;;;;2.63;1.90;;;;;;;;;;5074294;28;20176;-73
2021/12/26 00:07:08;;;;;;;2.37;1.50;;;;;;;;;;5071544;28;20192;-73
2021/12/26 00:09:33;;;;;;;2.03;1.43;;;;;;;;;;5070720;28;20852;-74
2021/12/26 00:11:58;;;;;;;3.23;1.77;;;;;;;;;;5071939;28;20722;-73
2021/12/26 00:14:23;;;;;;;6.10;1.63;;;;;;;;;;5073404;28;20185;-73
2021/12/26 00:16:49;;;;;;;2.80;1.73;;;;;;;;;;5068108;28;20217;-73
2021/12/26 00:19:14;;;;;;;2.00;1.63;;;;;;;;;;5080479;28;20334;-73
2021/12/26 00:21:39;;;;;;;3.87;1.80;;;;;;;;;;5071097;28;20568;-73
2021/12/26 00:24:04;;;;;;;3.90;1.90;;;;;;;;;;5076376;28;20176;-73
2021/12/26 00:26:32;;;;;;;4.67;2.10;;;;;;;;;;5081241;28;20208;-73
2021/12/26 00:28:57;;;;;;;2.17;1.50;;;;;;;;;;5080215;28;20173;-73
2021/12/26 00:31:22;;;;;;;2.53;1.57;;;;;;;;;;5086740;28;20218;-73
2021/12/26 00:33:48;;;;;;;2.30;1.50;;;;;;;;;;5086282;28;20193;-73
2021/12/26 00:36:13;;;;;;;2.60;1.50;;;;;;;;;;5080869;28;20199;-72
2021/12/26 00:38:38;;;;;;;3.30;1.27;;;;;;;;;;5081852;28;20181;-73
2021/12/26 00:41:03;;;;;;;5.10;1.90;;;;;;;;;;5080850;28;20627;-73
2021/12/26 00:43:29;;;;;;;2.93;1.77;;;;;;;;;;5080827;28;20203;-73
2021/12/26 00:45:54;;;;;;;3.33;1.70;;;;;;;;;;5089934;28;20176;-73
2021/12/26 00:48:19;;;;;;;3.30;1.87;;;;;;;;;;5084141;28;20203;-73
2021/12/26 00:50:45;;;;;;;3.00;1.70;;;;;;;;;;5084239;28;20192;-73
2021/12/26 00:53:10;;;;;;;5.57;1.83;;;;;;;;;;5086555;28;20183;-73
2021/12/26 00:55:35;;;;;;;2.83;1.83;;;;;;;;;;5078424;28;20306;-73
2021/12/26 00:58:01;;;;;;;3.17;1.57;;;;;;;;;;5068147;28;20466;-73
2021/12/26 01:00:28;;;;;;;3.37;1.70;;;;;;;;;;5062625;28;20214;-73
2021/12/26 01:02:54;;;;;;;1.90;1.63;;;;;;;;;;5066546;28;20188;-73
2021/12/26 01:05:20;;;;;;;2.20;1.47;;;;;;;;;;5060419;28;20220;-73
2021/12/26 01:08:00;;;;;;;2.50;1.50;;;;;;;;;;5066881;28;21737;-73
2021/12/26 01:10:28;;;;;;;2.27;1.50;;;;;;;;;;5066570;28;20236;-74
2021/12/26 01:12:54;;;;;;;3.63;1.90;;;;;;;;;;5068683;28;20181;-73
2021/12/26 01:15:22;;;;;;;4.00;1.77;;;;;;;;;;5068512;28;20226;-73
2021/12/26 01:17:48;;;;;;;2.20;1.67;;;;;;;;;;5069790;28;20208;-73
2021/12/26 01:20:37;;;;;;;2.80;1.33;;;;;;;;;;5068365;28;20529;-73
2021/12/26 01:23:02;;;;;;;2.43;1.80;;;;;;;;;;5069031;28;20181;-73
2021/12/26 01:25:28;;;;;;;3.03;1.40;;;;;;;;;;5069375;28;20253;-73
2021/12/26 01:27:53;;;;;;;4.90;1.40;;;;;;;;;;5069663;28;20180;-73
2021/12/26 01:30:18;;;;;;;2.53;1.70;;;;;;;;;;5070227;28;20208;-73
2021/12/26 01:32:43;;;;;;;1.93;1.40;;;;;;;;;;5069120;28;20222;-73
2021/12/26 01:35:08;;;;;;;4.63;1.67;;;;;;;;;;5068468;28;20824;-73
2021/12/26 01:37:34;;;;;;;1.60;1.40;;;;;;;;;;5069684;28;20208;-73
2021/12/26 01:39:59;;;;;;;1.63;1.40;;;;;;;;;;5068539;28;20294;-73
2021/12/26 01:42:25;;;;;;;3.80;1.70;;;;;;;;;;5069141;28;20305;-73
2021/12/26 01:44:51;;;;;;;2.40;1.40;;;;;;;;;;5068579;28;20177;-73
2021/12/26 01:47:16;;;;;;;2.30;1.70;;;;;;;;;;5072125;28;20212;-73
2021/12/26 01:49:41;;;;;;;1.90;1.33;;;;;;;;;;5074804;28;20200;-73
2021/12/26 01:52:07;;;;;;;2.07;1.40;;;;;;;;;;5068090;28;20235;-73
2021/12/26 01:54:39;;;;;;;3.47;1.90;;;;;;;;;;5066024;28;20570;-73
2021/12/26 01:57:05;;;;;;;2.27;1.50;;;;;;;;;;5082215;28;21035;-73
2021/12/26 01:59:30;;;;;;;2.57;1.30;;;;;;;;;;5067136;28;20212;-73
2021/12/26 02:01:57;;;;;;;3.57;1.40;;;;;;;;;;5066649;28;20227;-73
2021/12/26 02:04:23;;;;;;;1.57;1.17;;;;;;;;;;5070668;28;20560;-73
2021/12/26 02:06:48;;;;;;;2.80;1.37;;;;;;;;;;5068425;28;20185;-73
2021/12/26 02:09:14;;;;;;;2.10;1.70;;;;;;;;;;5067041;28;20192;-73
2021/12/26 02:11:40;;;;;;;3.20;1.60;;;;;;;;;;5066767;28;20184;-73
2021/12/26 02:14:05;;;;;;;1.97;1.70;;;;;;;;;;5054518;28;20189;-73
2021/12/26 02:16:30;;;;;;;2.90;1.50;;;;;;;;;;5067129;28;20693;-73
2021/12/26 02:18:56;;;;;;;1.23;1.10;;;;;;;;;;5071905;28;20637;-73
2021/12/26 02:21:40;;;;;;;2.50;1.40;;;;;;;;;;5076401;28;20637;-73
2021/12/26 02:24:14;;;;;;;2.87;1.40;;;;;;;;;;5068511;28;20195;-74
2021/12/26 02:29:24;;;;;;;2.70;1.50;;;;;;;;;;5067881;28;20247;-73
2021/12/26 02:31:49;;;;;;;2.67;1.60;;;;;;;;;;5066374;28;20188;-74
2021/12/26 02:34:15;;;;;;;2.53;1.57;;;;;;;;;;5066191;28;20258;-73
2021/12/26 02:36:40;;;;;;;3.43;1.67;;;;;;;;;;5066705;28;20207;-73
2021/12/26 02:39:06;;;;;;;3.93;1.40;;;;;;;;;;5066636;28;20710;-74
2021/12/26 02:41:31;;;;;;;4.30;1.50;;;;;;;;;;5067767;28;20192;-73
2021/12/26 02:43:57;;;;;;;2.67;1.50;;;;;;;;;;5066788;28;20181;-73
2021/12/26 02:46:24;;;;;;;1.80;1.23;;;;;;;;;;5067723;28;21381;-73
2021/12/26 02:48:49;;;;;;;2.87;1.53;;;;;;;;;;5069890;28;20241;-73
2021/12/26 02:51:14;;;;;;;3.37;1.53;;;;;;;;;;5067375;28;20196;-73
2021/12/26 02:53:40;;;;;;;4.30;1.30;;;;;;;;;;5066949;28;20736;-73
2021/12/26 02:56:05;;;;;;;3.03;1.43;;;;;;;;;;5066090;28;20881;-73
2021/12/26 02:58:30;;;;;;;4.70;1.60;;;;;;;;;;5067135;28;20181;-73
2021/12/26 03:01:19;;;;;;;1.63;1.40;;;;;;;;;;5064183;28;20320;-73
2021/12/26 03:03:44;;;;;;;2.47;1.50;;;;;;;;;;5054906;28;20200;-73
2021/12/26 03:06:18;;;;;;;1.90;1.40;;;;;;;;;;5076023;28;20191;-73
2021/12/26 03:08:46;;;;;;;3.27;1.53;;;;;;;;;;5065434;28;20221;-73
2021/12/26 03:11:11;;;;;;;2.57;1.60;;;;;;;;;;5065224;28;20224;-73
2021/12/26 03:13:36;;;;;;;3.67;1.50;;;;;;;;;;5066730;28;20264;-73
2021/12/26 03:16:02;;;;;;;2.30;1.60;;;;;;;;;;5065374;28;20200;-73
2021/12/26 03:18:27;;;;;;;5.67;1.70;;;;;;;;;;5070404;28;20276;-73
2021/12/26 03:20:52;;;;;;;2.60;1.90;;;;;;;;;;5067134;28;20192;-74
2021/12/26 03:23:19;;;;;;;2.43;1.70;;;;;;;;;;5065341;28;20568;-74
2021/12/26 03:25:45;;;;;;;3.07;1.70;;;;;;;;;;5065462;28;20176;-73
2021/12/26 03:28:10;;;;;;;1.63;1.20;;;;;;;;;;5068482;28;20326;-74
2021/12/26 03:30:36;;;;;;;2.77;1.60;;;;;;;;;;5067161;28;20693;-74
2021/12/26 03:33:03;;;;;;;2.40;1.57;;;;;;;;;;5066555;28;20185;-74
2021/12/26 03:35:28;;;;;;;2.90;1.97;;;;;;;;;;5065459;28;20692;-74
2021/12/26 03:37:54;;;;;;;2.03;1.43;;;;;;;;;;5066616;28;20212;-72
2021/12/26 03:40:19;;;;;;;3.03;1.67;;;;;;;;;;5065192;28;20196;-72
2021/12/26 03:42:45;;;;;;;3.67;1.23;;;;;;;;;;5064802;28;20183;-72
2021/12/26 03:45:10;;;;;;;1.73;1.37;;;;;;;;;;5066678;28;20181;-74
2021/12/26 03:47:36;;;;;;;1.90;1.70;;;;;;;;;;5068996;28;20176;-74
2021/12/26 03:50:03;;;;;;;2.27;1.37;;;;;;;;;;5070878;28;20200;-74
2021/12/26 03:52:28;;;;;;;1.63;1.23;;;;;;;;;;5075167;28;20184;-74
2021/12/26 03:54:54;;;;;;;3.23;1.63;;;;;;;;;;5063505;28;20177;-74
2021/12/26 03:57:19;;;;;;;2.40;1.27;;;;;;;;;;5068528;28;20271;-74
2021/12/26 03:59:44;;;;;;;4.00;1.70;;;;;;;;;;5065400;28;20204;-74
2021/12/26 04:02:10;;;;;;;2.07;1.57;;;;;;;;;;5066265;28;20860;-74
2021/12/26 04:04:35;;;;;;;2.60;1.67;;;;;;;;;;5068401;28;20181;-74
2021/12/26 04:07:00;;;;;;;2.57;1.50;;;;;;;;;;5066946;28;20180;-74
2021/12/26 04:09:25;;;;;;;3.03;1.60;;;;;;;;;;5063731;28;20205;-73
2021/12/26 04:11:50;;;;;;;2.27;1.50;;;;;;;;;;5063940;28;20184;-74
2021/12/26 04:14:16;;;;;;;2.70;1.50;;;;;;;;;;5064139;28;20272;-74
2021/12/26 04:16:42;;;;;;;2.73;1.30;;;;;;;;;;5066387;28;20203;-74
2021/12/26 04:19:07;;;;;;;2.03;1.57;;;;;;;;;;5067591;28;20343;-74
2021/12/26 04:21:32;;;;;;;1.57;1.33;;;;;;;;;;5070077;28;20243;-73
2021/12/26 04:23:58;;;;;;;2.90;1.60;;;;;;;;;;5069765;28;20257;-72
2021/12/26 04:26:23;;;;;;;3.37;1.43;;;;;;;;;;5070411;28;20225;-72
2021/12/26 04:28:48;;;;;;;1.40;1.30;;;;;;;;;;5068337;28;20176;-73
2021/12/26 04:31:15;;;;;;;3.47;1.90;;;;;;;;;;5069231;28;20212;-72
2021/12/26 04:33:40;;;;;;;2.07;1.43;;;;;;;;;;5068217;28;20181;-72
2021/12/26 04:36:06;;;;;;;3.40;1.70;;;;;;;;;;5067719;28;20235;-73
2021/12/26 04:38:31;;;;;;;4.73;1.30;;;;;;;;;;5068975;28;20189;-72
2021/12/26 04:40:56;;;;;;;1.83;1.30;;;;;;;;;;5068871;28;20336;-72
2021/12/26 04:43:23;;;;;;;4.63;2.40;;;;;;;;;;5069294;28;20176;-73
2021/12/26 04:45:49;;;;;;;2.70;1.33;;;;;;;;;;5066586;28;20188;-72
2021/12/26 04:48:14;;;;;;;2.50;1.67;;;;;;;;;;5071275;28;20182;-72
2021/12/26 04:50:39;;;;;;;1.57;1.47;;;;;;;;;;5066755;28;20288;-72
2021/12/26 04:53:05;;;;;;;2.73;1.77;;;;;;;;;;5069041;28;20172;-74
2021/12/26 04:55:30;;;;;;;4.63;1.80;;;;;;;;;;5068435;28;20184;-72
2021/12/26 04:57:55;;;;;;;2.30;1.57;;;;;;;;;;5069820;28;20473;-72
2021/12/26 05:00:22;;;;;;;2.40;1.70;;;;;;;;;;5068172;28;20695;-75
2021/12/26 05:02:48;;;;;;;2.50;1.63;;;;;;;;;;5067845;28;20545;-74
2021/12/26 05:05:14;;;;;;;2.27;1.47;;;;;;;;;;5073398;28;20649;-73
2021/12/26 05:07:39;;;;;;;2.00;1.37;;;;;;;;;;5069322;28;20183;-74
2021/12/26 05:10:05;;;;;;;2.50;1.67;;;;;;;;;;5069756;28;20226;-73
2021/12/26 05:12:30;;;;;;;1.90;1.50;;;;;;;;;;5068338;28;20263;-73
2021/12/26 05:14:55;;;;;;;2.57;1.60;;;;;;;;;;5069113;28;20192;-73
2021/12/26 05:17:21;;;;;;;2.23;1.43;;;;;;;;;;5068224;28;20205;-74
2021/12/26 05:19:46;;;;;;;2.77;1.53;;;;;;;;;;5070027;28;20210;-74
2021/12/26 05:22:11;;;;;;;4.40;2.53;;;;;;;;;;5067605;28;20277;-73
2021/12/26 05:24:36;;;;;;;3.57;2.23;;;;;;;;;;5066641;28;20223;-73
2021/12/26 05:27:02;;;;;;;2.90;1.63;;;;;;;;;;5069722;28;20792;-73
2021/12/26 05:29:27;;;;;;;3.07;1.50;;;;;;;;;;5068888;28;20196;-73
2021/12/26 05:31:55;;;;;;;2.33;1.47;;;;;;;;;;5068031;28;20365;-73
2021/12/26 05:34:20;;;;;;;3.03;2.00;;;;;;;;;;5066472;28;20184;-74
2021/12/26 05:36:46;;;;;;;5.07;1.60;;;;;;;;;;5067741;28;20284;-74
2021/12/26 05:39:12;;;;;;;3.17;1.70;;;;;;;;;;5068104;28;21007;-74
2021/12/26 05:41:38;;;;;;;2.70;1.73;;;;;;;;;;5068524;28;20195;-73
2021/12/26 05:44:04;;;;;;;2.60;1.30;;;;;;;;;;5067173;28;21015;-73
2021/12/26 05:46:29;;;;;;;3.40;2.20;;;;;;;;;;5068753;28;20184;-73
2021/12/26 05:48:54;;;;;;;2.37;1.60;;;;;;;;;;5070292;28;20567;-73
2021/12/26 05:51:19;;;;;;;3.23;1.73;;;;;;;;;;5067747;28;20662;-74
2021/12/26 05:53:45;;;;;;;3.67;2.17;;;;;;;;;;5075102;28;20303;-74
2021/12/26 05:56:10;;;;;;;3.53;2.00;;;;;;;;;;5066931;28;20227;-73
2021/12/26 05:58:35;;;;;;;1.93;1.43;;;;;;;;;;5068788;28;20965;-73
2021/12/26 06:01:00;;;;;;;2.13;1.57;;;;;;;;;;5069272;28;20328;-73
2021/12/26 06:03:26;;;;;;;2.40;1.67;;;;;;;;;;5069314;28;20189;-73
2021/12/26 06:05:51;;;;;;;3.47;1.87;;;;;;;;;;5069711;28;20184;-73
2021/12/26 06:08:17;;;;;;;1.70;1.47;;;;;;;;;;5068000;28;20169;-73
2021/12/26 06:10:42;;;;;;;2.57;1.57;;;;;;;;;;5066114;28;20197;-73
2021/12/26 06:13:08;;;;;;;2.37;1.70;;;;;;;;;;5066729;28;20173;-72
2021/12/26 06:15:33;;;;;;;2.40;1.53;;;;;;;;;;5067333;28;20304;-73
2021/12/26 06:17:58;;;;;;;2.33;1.87;;;;;;;;;;5069735;28;20554;-72
2021/12/26 06:20:23;;;;;;;2.53;1.67;;;;;;;;;;5068940;28;20227;-72
2021/12/26 06:22:48;;;;;;;1.67;1.57;;;;;;;;;;5064173;28;20271;-73
2021/12/26 06:25:15;;;;;;;2.07;1.60;;;;;;;;;;5066550;28;20190;-72
2021/12/26 06:27:40;;;;;;;2.30;1.43;;;;;;;;;;5067061;28;20188;-73
2021/12/26 06:30:06;;;;;;;2.03;1.60;;;;;;;;;;5070121;28;20200;-73
2021/12/26 06:32:31;;;;;;;1.73;1.30;;;;;;;;;;5068582;28;20494;-73
2021/12/26 06:34:56;;;;;;;3.13;1.77;;;;;;;;;;5067446;28;20188;-73
2021/12/26 06:37:22;;;;;;;15.10;1.80;;;;;;;;;;5064454;28;20295;-73
2021/12/26 06:39:47;;;;;;;3.13;1.77;;;;;;;;;;5068191;28;20196;-73
2021/12/26 06:42:12;;;;;;;3.07;1.67;;;;;;;;;;5068297;28;20255;-72
2021/12/26 06:44:38;;;;;;;2.53;1.33;;;;;;;;;;5066712;28;20316;-72
2021/12/26 06:47:04;;;;;;;2.37;1.70;;;;;;;;;;5066900;28;20184;-72
2021/12/26 06:49:30;;;;;;;2.03;1.83;;;;;;;;;;5068623;28;20327;-72
2021/12/26 06:51:55;;;;;;;2.50;1.60;;;;;;;;;;5067178;28;20184;-74
2021/12/26 06:54:20;;;;;;;1.87;1.70;;;;;;;;;;5064655;28;20188;-74
2021/12/26 06:56:45;;;;;;;2.00;1.60;;;;;;;;;;5066548;28;20207;-74
2021/12/26 06:59:13;;;;;;;1.97;1.50;;;;;;;;;;5066015;28;20579;-74
2021/12/26 07:01:39;;;;;;;2.70;1.53;;;;;;;;;;5065710;28;20191;-74
2021/12/26 07:04:04;;;;;;;2.43;1.60;;;;;;;;;;5068271;28;20211;-74
2021/12/26 07:06:29;;;;;;;3.37;1.63;;;;;;;;;;5067773;28;20734;-74
2021/12/26 07:08:54;;;;;;;2.10;1.53;;;;;;;;;;5067792;28;20184;-73
2021/12/26 07:11:19;;;;;;;3.20;1.80;;;;;;;;;;5066000;28;20661;-74
2021/12/26 07:13:45;;;;;;;3.17;1.60;;;;;;;;;;5066335;28;21611;-74
2021/12/26 07:16:10;;;;;;;2.13;1.43;;;;;;;;;;5068365;28;20570;-73
2021/12/26 07:18:35;;;;;;;3.47;1.80;;;;;;;;;;5067187;28;20314;-73
2021/12/26 07:21:00;;;;;;;2.53;1.50;;;;;;;;;;5068251;28;20206;-74
2021/12/26 07:23:25;;;;;;;2.73;1.63;;;;;;;;;;5064858;28;20184;-74
2021/12/26 07:25:50;;;;;;;1.67;1.40;;;;;;;;;;5066813;28;20177;-74
2021/12/26 07:28:16;;;;;;;4.67;2.27;;;;;;;;;;5067982;28;20214;-74
2021/12/26 07:30:41;;;;;;;2.67;1.63;;;;;;;;;;5080860;28;20211;-74
2021/12/26 07:33:06;;;;;;;2.10;1.87;;;;;;;;;;5069752;28;20241;-74
2021/12/26 07:35:32;;;;;;;5.13;2.67;;;;;;;;;;5066457;28;20180;-74
2021/12/26 07:37:57;;;;;;;3.47;2.17;;;;;;;;;;5065480;28;20689;-74
2021/12/26 07:40:22;;;;;;;3.17;2.00;;;;;;;;;;5065894;28;20961;-74
2021/12/26 07:42:47;;;;;;;2.03;1.70;;;;;;;;;;5065870;28;20246;-74
2021/12/26 07:45:13;;;;;;;2.53;1.63;;;;;;;;;;5065889;28;20180;-74
2021/12/26 07:47:38;;;;;;;2.37;2.03;;;;;;;;;;5067290;28;20254;-73
2021/12/26 07:50:04;;;;;;;3.10;1.60;;;;;;;;;;5066296;28;20719;-74
2021/12/26 07:52:34;;;;;;;3.17;1.57;;;;;;;;;;5078732;28;20208;-73
2021/12/26 07:55:01;;;;;;;2.60;1.77;;;;;;;;;;5087861;28;20169;-73
2021/12/26 07:57:26;;;;;;;2.67;1.70;;;;;;;;;;5084395;28;20204;-73
2021/12/26 07:59:51;;;;;;;2.37;1.80;;;;;;;;;;5075621;28;20207;-73
2021/12/26 08:02:18;;;;;;;2.97;1.97;;;;;;;;;;5069265;28;20180;-73
2021/12/26 08:04:44;;;;;;;2.27;1.80;;;;;;;;;;5072669;28;20272;-74
2021/12/26 08:07:09;;;;;;;2.83;1.87;;;;;;;;;;5071422;28;20189;-74
2021/12/26 08:09:34;;;;;;;3.53;1.83;;;;;;;;;;5068779;28;20204;-74
2021/12/26 08:11:59;;;;;;;3.37;2.03;;;;;;;;;;5070150;28;21191;-75
2021/12/26 08:14:24;;;;;;;2.10;1.90;;;;;;;;;;5068650;28;20245;-74
2021/12/26 08:16:49;;;;;;;2.80;2.00;;;;;;;;;;5069704;28;20911;-73
2021/12/26 08:19:15;;;;;;;2.40;1.60;;;;;;;;;;5075839;28;20863;-74
2021/12/26 08:21:40;;;;;;;3.27;2.00;;;;;;;;;;5072175;28;20196;-74
2021/12/26 08:24:05;;;;;;;3.80;2.10;;;;;;;;;;5072411;28;20189;-74
2021/12/26 08:26:32;;;;;;;4.37;2.20;;;;;;;;;;5070810;28;21890;-74
2021/12/26 08:28:57;;;;;;;4.17;2.50;;;;;;;;;;5070440;28;20184;-74
2021/12/26 08:31:23;;;;;;;2.40;1.70;;;;;;;;;;5074808;28;20179;-74
2021/12/26 08:33:48;;;;;;;3.83;2.07;;;;;;;;;;5069457;28;21795;-74
2021/12/26 08:36:13;;;;;;;3.50;2.30;;;;;;;;;;5074273;28;20184;-74
2021/12/26 08:38:39;;;;;;;2.67;1.90;;;;;;;;;;5091548;28;20176;-72
2021/12/26 08:41:05;;;;;;;3.80;1.87;;;;;;;;;;5093489;28;20216;-74
2021/12/26 08:43:30;;;;;;;5.90;1.63;;;;;;;;;;5082988;28;20209;-74
2021/12/26 08:45:55;;;;;;;2.67;1.90;;;;;;;;;;5091329;28;20176;-74
2021/12/26 08:48:20;;;;;;;3.03;1.90;;;;;;;;;;5081142;28;20168;-73
2021/12/26 08:50:46;;;;;;;3.03;2.10;;;;;;;;;;5089388;28;20195;-72
2021/12/26 08:53:11;;;;;;;4.00;2.13;;;;;;;;;;5068782;28;20244;-74
2021/12/26 08:55:37;;;;;;;2.67;2.00;;;;;;;;;;5067598;28;20183;-74
2021/12/26 08:58:05;;;;;;;4.17;2.10;;;;;;;;;;5068363;28;20208;-74
2021/12/26 09:00:32;;;;;;;2.87;1.93;;;;;;;;;;5066296;28;20266;-72
2021/12/26 09:02:57;;;;;;;2.77;1.90;;;;;;;;;;5069610;28;20187;-72
2021/12/26 09:05:23;;;;;;;3.13;2.23;;;;;;;;;;5075030;28;20180;-74
2021/12/26 09:07:48;;;;;;;3.50;2.10;;;;;;;;;;5069590;28;20656;-74
2021/12/26 09:10:13;;;;;;;7.13;2.50;;;;;;;;;;5069655;28;20208;-73
2021/12/26 09:12:39;;;;;;;2.37;1.90;;;;;;;;;;5070097;28;20326;-73
2021/12/26 09:15:05;;;;;;;3.47;2.10;;;;;;;;;;5070413;28;20197;-73
2021/12/26 09:17:30;;;;;;;2.70;1.80;;;;;;;;;;5071281;28;20208;-74
2021/12/26 09:19:56;;;;;;;3.07;2.03;;;;;;;;;;5068586;28;20235;-74
2021/12/26 09:22:21;;;;;;;3.33;1.93;;;;;;;;;;5071238;28;20172;-74
2021/12/26 09:24:46;;;;;;;3.03;2.20;;;;;;;;;;5064954;28;20258;-73
2021/12/26 09:27:13;;;;;;;3.27;2.17;;;;;;;;;;5068725;28;20252;-73
2021/12/26 09:29:38;;;;;;;3.30;2.20;;;;;;;;;;5065068;28;20227;-74
2021/12/26 09:32:04;;;;;;;2.03;1.80;;;;;;;;;;5068782;28;20360;-74
2021/12/26 09:34:31;;;;;;;3.17;2.20;;;;;;;;;;5062668;28;20672;-71
2021/12/26 09:36:57;;;;;;;2.53;2.07;;;;;;;;;;5066580;28;20208;-72
2021/12/26 09:39:23;;;;;;;2.87;2.03;;;;;;;;;;5068464;28;20208;-72
2021/12/26 09:41:48;;;;;;;3.37;2.67;;;;;;;;;;5068447;28;20181;-71
2021/12/26 09:44:13;;;;;;;2.73;2.23;;;;;;;;;;5067970;28;20180;-72
2021/12/26 09:46:39;;;;;;;2.60;2.30;;;;;;;;;;5066445;28;20184;-72
2021/12/26 09:49:04;;;;;;;4.37;2.30;;;;;;;;;;5070566;28;20552;-70
2021/12/26 09:51:29;;;;;;;3.03;2.20;;;;;;;;;;5074386;28;21460;-71
2021/12/26 09:53:55;;;;;;;4.33;2.43;;;;;;;;;;5068407;28;20267;-71
2021/12/26 09:56:20;;;;;;;2.70;2.43;;;;;;;;;;5066039;28;20282;-71
2021/12/26 09:58:57;;;;;;;3.37;2.47;;;;;;;;;;5068102;28;20933;-71
2021/12/26 10:01:26;;;;;;;2.97;2.43;;;;;;;;;;5067557;28;20916;-71
2021/12/26 10:03:51;;;;;;;3.00;2.40;;;;;;;;;;5070720;28;20177;-74
2021/12/26 10:06:18;;;;;;;4.40;2.33;;;;;;;;;;5077170;28;20194;-75
2021/12/26 10:09:12;;;;;;;3.37;2.63;;;;;;;;;;5069368;28;20180;-72
2021/12/26 10:11:42;;;;;;;3.20;2.40;;;;;;;;;;5055950;28;20657;-72
2021/12/26 10:14:12;;;;;;;9.10;2.43;;;;;;;;;;5066908;28;20235;-75
2021/12/26 10:16:42;;;;;;;4.07;2.63;;;;;;;;;;5070699;28;20212;-72
2021/12/26 10:19:07;;;;;;;3.80;2.60;;;;;;;;;;5070382;28;20192;-73
2021/12/26 10:21:35;;;;;;;3.60;3.00;;;;;;;;;;5073049;28;20223;-75
2021/12/26 10:24:02;;;;;;;3.97;2.43;;;;;;;;;;5056094;28;20692;-73
2021/12/26 10:26:29;;;;;;;2.77;2.40;;;;;;;;;;5067983;28;20184;-73
2021/12/26 10:29:04;;;;;;;3.13;2.43;;;;;;;;;;5067590;28;20550;-72
2021/12/26 10:31:29;;;;;;;5.80;2.60;;;;;;;;;;5065660;28;20190;-73
2021/12/26 10:33:55;;;;;;;3.57;2.80;;;;;;;;;;5068055;28;20180;-72
2021/12/26 10:36:20;;;;;;;3.83;2.70;;;;;;;;;;5066947;28;20200;-72
2021/12/26 10:39:05;;;;;;;4.47;2.77;;;;;;;;;;5068491;28;20334;-73
2021/12/26 10:41:30;;;;;;;3.67;2.50;;;;;;;;;;5066625;28;20251;-73
2021/12/26 10:43:55;;;;;;;5.20;2.93;;;;;;;;;;5066374;28;20180;-72
2021/12/26 10:46:21;;;;;;;5.53;3.30;;;;;;;;;;5066697;28;20173;-72
2021/12/26 10:48:46;;;;;;;4.87;3.60;;;;;;;;;;5073960;28;20215;-73
2021/12/26 10:51:31;;;;;;;7.90;4.27;;;;;;;;;;5064058;28;20191;-72
2021/12/26 10:54:12;;;;;;;6.73;3.47;;;;;;;;;;5067287;28;20185;-73
2021/12/26 10:56:37;;;;;;;4.23;3.10;;;;;;;;;;5067503;28;20782;-73
2021/12/26 10:59:19;;;;;;;4.37;2.90;;;;;;;;;;5066796;28;20374;-73
2021/12/26 11:01:44;;;;;;;4.57;3.40;;;;;;;;;;5069197;28;20199;-71
2021/12/26 11:04:11;;;;;;;3.97;3.00;;;;;;;;;;5068107;28;20822;-74
2021/12/26 11:06:55;;;;;;;3.93;2.80;;;;;;;;;;5068750;28;20202;-72
2021/12/26 11:09:20;;;;;;;4.73;3.13;;;;;;;;;;5067375;28;20199;-72
2021/12/26 11:11:59;;;;;;;5.17;3.33;;;;;;;;;;5068621;28;20668;-72
2021/12/26 11:14:24;;;;;;;6.97;3.80;;;;;;;;;;5069378;28;20673;-72
2021/12/26 11:16:49;;;;;;;4.90;3.10;;;;;;;;;;5069808;28;20204;-73
2021/12/26 11:19:15;;;;;;;4.00;3.17;;;;;;;;;;5069646;28;20200;-73
2021/12/26 11:21:41;;;;;;;4.33;3.40;;;;;;;;;;5065207;28;20172;-73
2021/12/26 11:24:06;;;;;;;4.33;3.43;;;;;;;;;;5065307;28;20548;-72
2021/12/26 11:26:31;;;;;;;7.33;4.80;;;;;;;;;;5066793;28;20260;-75
2021/12/26 11:28:56;;;;;;;4.40;3.50;;;;;;;;;;5067658;28;20197;-72
2021/12/26 11:31:23;;;;;;;4.83;3.47;;;;;;;;;;5065478;28;20189;-73
2021/12/26 11:33:54;;;;;;;5.97;3.53;;;;;;;;;;5066684;28;20566;-73
2021/12/26 11:36:19;;;;;;;5.13;3.43;;;;;;;;;;5072036;28;20259;-72
2021/12/26 11:38:44;;;;;;;5.77;3.70;;;;;;;;;;5068567;28;20252;-72
2021/12/26 11:41:34;;;;;;;7.30;4.13;;;;;;;;;;5065878;28;20681;-72
2021/12/26 11:44:08;;;;;;;5.50;3.90;;;;;;;;;;5065354;28;20286;-71
2021/12/26 11:46:39;;;;;;;7.27;4.53;;;;;;;;;;5065915;28;20255;-72
2021/12/26 11:49:25;;;;;;;6.77;3.97;;;;;;;;;;5069426;28;20565;-73
2021/12/26 11:52:09;;;;;;;6.13;4.47;;;;;;;;;;5068543;28;20183;-73
2021/12/26 11:54:57;;;;;;;7.37;3.90;;;;;;;;;;5066733;28;20175;-73
2021/12/26 11:57:41;;;;;;;5.73;4.40;;;;;;;;;;5065650;28;20204;-71
2021/12/26 12:00:25;;;;;;;7.20;4.87;;;;;;;;;;5067687;28;20216;-72
2021/12/26 12:02:52;;;;;;;6.93;4.37;;;;;;;;;;5067066;28;20237;-72
2021/12/26 12:05:19;;;;;;;6.50;4.73;;;;;;;;;;5075322;28;20215;-73
2021/12/26 12:07:45;;;;;;;7.37;4.83;;;;;;;;;;5069476;28;20192;-73
2021/12/26 12:10:29;;;;;;;6.30;4.83;;;;;;;;;;5068026;28;20844;-72
2021/12/26 12:12:54;;;;;;;6.67;4.67;;;;;;;;;;5064510;28;20186;-72
2021/12/26 12:15:39;;;;;;;7.60;5.03;;;;;;;;;;5067215;28;20189;-73
2021/12/26 12:18:09;;;;;;;7.50;4.80;;;;;;;;;;5070074;28;20471;-72
2021/12/26 12:20:35;;;;;;;5.83;4.03;;;;;;;;;;5067028;28;20219;-73
2021/12/26 12:23:09;;;;;;;7.70;4.97;;;;;;;;;;5066198;28;20172;-72
2021/12/26 12:25:35;;;;;;;6.93;4.80;;;;;;;;;;5066173;28;20184;-72
2021/12/26 12:28:09;;;;;;;6.90;5.20;;;;;;;;;;5068158;28;20188;-74
2021/12/26 12:30:36;;;;;;;6.73;4.50;;;;;;;;;;5067345;28;20247;-71
2021/12/26 12:33:15;;;;;;;5.93;4.30;;;;;;;;;;5068787;28;20204;-72
2021/12/26 12:35:48;;;;;;;7.13;5.23;;;;;;;;;;5065815;28;20200;-72
2021/12/26 12:38:21;;;;;;;6.50;4.30;;;;;;;;;;5066110;28;20258;-74
2021/12/26 12:40:46;;;;;;;8.00;4.93;;;;;;;;;;5066859;28;20200;-75
2021/12/26 12:43:15;;;;;;;8.27;4.60;;;;;;;;;;5068990;28;20183;-75
2021/12/26 12:45:56;;;;;;;6.03;4.40;;;;;;;;;;5068285;28;20602;-73
2021/12/26 12:48:21;;;;;;;6.23;4.80;;;;;;;;;;5070745;28;20923;-75
2021/12/26 12:50:46;;;;;;;5.80;4.50;;;;;;;;;;5070193;28;20287;-75
2021/12/26 12:53:32;;;;;;;6.07;4.40;;;;;;;;;;5068999;28;20195;-74
2021/12/26 12:55:57;;;;;;;5.73;4.67;;;;;;;;;;5057875;28;20200;-75
2021/12/26 12:58:25;;;;;;;6.37;5.10;;;;;;;;;;5067571;28;20714;-72
2021/12/26 13:00:50;;;;;;;7.70;5.60;;;;;;;;;;5074716;28;20266;-75
2021/12/26 13:03:18;;;;;;;7.63;4.77;;;;;;;;;;5070789;28;20965;-74
2021/12/26 13:05:44;;;;;;;6.03;4.53;;;;;;;;;;5070602;28;20192;-75
2021/12/26 13:08:11;;;;;;;5.77;4.60;;;;;;;;;;5068750;28;20192;-78
2021/12/26 13:10:37;;;;;;;6.33;4.97;;;;;;;;;;5067748;28;20692;-75
2021/12/26 13:13:03;;;;;;;6.73;4.80;;;;;;;;;;5069282;28;20204;-74
2021/12/26 13:15:28;;;;;;;5.43;4.53;;;;;;;;;;5069342;28;20177;-75
2021/12/26 13:17:54;;;;;;;7.40;4.83;;;;;;;;;;5073520;28;20207;-75
2021/12/26 13:20:29;;;;;;;7.03;5.03;;;;;;;;;;5068739;28;20216;-75
2021/12/26 13:22:56;;;;;;;5.93;4.80;;;;;;;;;;5072405;28;20202;-76
2021/12/26 13:25:37;;;;;;;5.93;4.87;;;;;;;;;;5068127;28;20242;-75
2021/12/26 13:28:04;;;;;;;5.03;4.20;;;;;;;;;;5069749;28;20275;-76
2021/12/26 13:30:31;;;;;;;8.30;4.80;;;;;;;;;;5067892;28;20239;-76
2021/12/26 13:32:56;;;;;;;8.27;5.53;;;;;;;;;;5070660;28;20192;-76
2021/12/26 13:35:35;;;;;;;7.53;4.80;;;;;;;;;;5069270;28;21061;-75
2021/12/26 13:38:01;;;;;;;7.23;4.87;;;;;;;;;;5066639;28;20208;-76
2021/12/26 13:40:31;;;;;;;6.80;5.10;;;;;;;;;;5067347;28;20202;-76
2021/12/26 13:42:56;;;;;;;7.73;4.93;;;;;;;;;;5068435;28;20188;-76
2021/12/26 13:45:29;;;;;;;6.67;5.27;;;;;;;;;;5066771;28;20643;-75
2021/12/26 13:47:54;;;;;;;7.30;4.67;;;;;;;;;;5072207;28;20187;-76
2021/12/26 13:50:19;;;;;;;7.13;4.77;;;;;;;;;;5073545;28;20204;-78
2021/12/26 13:52:44;;;;;;;6.23;4.80;;;;;;;;;;5069176;28;20184;-75
2021/12/26 13:55:10;;;;;;;8.23;5.37;;;;;;;;;;5068998;28;20283;-77
2021/12/26 13:57:35;;;;;;;7.83;4.70;;;;;;;;;;5065598;28;20249;-76
2021/12/26 14:00:02;;;;;;;6.67;4.83;;;;;;;;;;5070181;28;20208;-76
2021/12/26 14:02:32;;;;;;;8.63;5.33;;;;;;;;;;5069050;28;20184;-76
2021/12/26 14:05:03;;;;;;;8.53;4.93;;;;;;;;;;5071903;28;20192;-76
2021/12/26 14:07:30;;;;;;;8.17;5.03;;;;;;;;;;5067509;28;20207;-76
2021/12/26 14:09:58;;;;;;;8.03;5.20;;;;;;;;;;5067582;28;20615;-76
2021/12/26 14:12:39;;;;;;;7.23;5.13;;;;;;;;;;5068550;28;20185;-76
2021/12/26 14:15:27;;;;;;;6.97;5.13;;;;;;;;;;5068006;28;20284;-76
2021/12/26 14:17:53;;;;;;;6.77;5.23;;;;;;;;;;5069878;28;20200;-76
2021/12/26 14:20:18;;;;;;;8.53;4.83;;;;;;;;;;5062715;28;20253;-76
2021/12/26 14:22:44;;;;;;;7.60;5.53;;;;;;;;;;5066907;28;20176;-76
2021/12/26 14:25:12;;;;;;;7.53;5.33;;;;;;;;;;5068016;28;20180;-77
2021/12/26 14:27:40;;;;;;;6.43;4.57;;;;;;;;;;5068587;28;20195;-77
2021/12/26 14:30:05;;;;;;;10.33;4.87;;;;;;;;;;5067626;28;20200;-77
2021/12/26 14:32:31;;;;;;;9.10;5.57;;;;;;;;;;5066976;28;20192;-76
2021/12/26 14:34:56;;;;;;;8.60;6.10;;;;;;;;;;5068598;28;20176;-77
2021/12/26 14:37:22;;;;;;;8.87;5.30;;;;;;;;;;5068787;28;20204;-76
2021/12/26 14:39:48;;;;;;;7.37;5.20;;;;;;;;;;5067773;28;20847;-76
2021/12/26 14:42:15;;;;;;;9.53;5.33;;;;;;;;;;5065359;28;20184;-76
2021/12/26 14:44:44;;;;;;;8.87;6.33;;;;;;;;;;5066466;28;20630;-76
2021/12/26 14:47:09;;;;;;;9.80;5.73;;;;;;;;;;5063731;28;20188;-76